Patricia Ann — WDE2845 — position and weather

sailwx.info

Track history (hours):
 
Tides and Currents Weather Stations Pressure Air Temp Water Temp Dewpoint Dewpoint Depression Visibility Wind Speed Wind Dir Waves Ship Positions

Patricia Ann

Owner: AmNav Maritime Services, Oakland, CA. More information available from US FCC via Universal Licensing System and Coast Guard Vessel Documentation Center.

Last reported at 2015-Jan-30 08:33 UTC. Time now 2015-Jan-30 09:28 UTC.
Position N 37°49' W 122°19'.

Length 24 m; draft 4.9 m.

Type: Tug. MMSI: 367330510.

Date/timePositionNaut miles runAvg speedWind from/ knotsBaromVisibWave heightAir tempDewpointWater temp
2015-Jan-30 08:33N 37°49' W 122°19'0 0.0
2015-Jan-30 07:33N 37°49' W 122°19'0 0.0
2015-Jan-30 06:33N 37°49' W 122°19'0 0.0
2015-Jan-30 05:33N 37°49' W 122°19'0 0.0
2015-Jan-30 04:33N 37°49' W 122°19'0 0.0
2015-Jan-30 03:33N 37°49' W 122°19'1 1.4
2015-Jan-30 02:34N 37°49' W 122°20'0 0.2
2015-Jan-30 01:33N 37°49' W 122°20'1 1.3
2015-Jan-30 00:33N 37°49' W 122°19'0 0.0
2015-Jan-29 23:33N 37°49' W 122°19'0 0.0
2015-Jan-29 22:33N 37°49' W 122°19'0 0.0
2015-Jan-29 21:33N 37°49' W 122°19'0 0.0
2015-Jan-29 20:33N 37°49' W 122°19'0 0.0
2015-Jan-29 19:33N 37°49' W 122°19'0 0.0
2015-Jan-29 18:33N 37°49' W 122°19'0 0.0
2015-Jan-29 17:33N 37°49' W 122°19'0 0.0
2015-Jan-29 16:33N 37°49' W 122°19'0 0.0
2015-Jan-29 15:33N 37°49' W 122°19'0 0.0
2015-Jan-29 14:33N 37°49' W 122°19'0 0.0
2015-Jan-29 13:33N 37°49' W 122°19'0 0.4
2015-Jan-29 12:33N 37°49' W 122°19'1 1.1
2015-Jan-29 11:33N 37°49' W 122°20'1 1.5
2015-Jan-29 10:33N 37°49' W 122°19'0 0.0
2015-Jan-29 09:33N 37°49' W 122°19'0 0.0
2015-Jan-29 08:33N 37°49' W 122°19'0 0.0
2015-Jan-29 07:33N 37°49' W 122°19'0 0.0
2015-Jan-29 06:33N 37°49' W 122°19'0 0.0
2015-Jan-29 05:34N 37°49' W 122°19'0 0.0
2015-Jan-29 04:34N 37°49' W 122°19'0 0.0
2015-Jan-29 03:33N 37°49' W 122°19'0 0.0
2015-Jan-29 02:33N 37°49' W 122°19'0 0.0
2015-Jan-29 01:33N 37°49' W 122°19'0 0.0
2015-Jan-29 00:34N 37°49' W 122°19'0 0.0
2015-Jan-28 23:33N 37°49' W 122°19'0 0.0
2015-Jan-28 22:34N 37°49' W 122°19'0 0.0
2015-Jan-28 21:33N 37°49' W 122°19'0 0.0
2015-Jan-28 20:33N 37°49' W 122°19'2 1.9
2015-Jan-28 19:33N 37°48' W 122°18'0 0.3
2015-Jan-28 18:33N 37°48' W 122°18'3 3.2
2015-Jan-28 17:34N 37°48' W 122°22'1 1.2
2015-Jan-28 16:33N 37°48' W 122°21'0 0.0
2015-Jan-28 15:33N 37°48' W 122°21'3 2.8
2015-Jan-28 14:33N 37°48' W 122°24'1 1.0
2015-Jan-28 13:33N 37°49' W 122°25'5 4.9
2015-Jan-28 12:33N 37°49' W 122°19'0 0.0
2015-Jan-28 11:33N 37°49' W 122°19'0 0.0
2015-Jan-28 10:34N 37°49' W 122°19'0 0.0
2015-Jan-28 09:33N 37°49' W 122°19'0 0.0
2015-Jan-28 08:34N 37°49' W 122°19'0 0.0
2015-Jan-28 07:34N 37°49' W 122°19'0 0.0
2015-Jan-28 06:33N 37°49' W 122°19'2 1.9
2015-Jan-28 05:34N 37°48' W 122°18'1 0.7
2015-Jan-28 04:34N 37°48' W 122°17'0 0.0
2015-Jan-28 03:33N 37°48' W 122°17'0 0.5
2015-Jan-28 02:33N 37°48' W 122°18'0 0.0
2015-Jan-28 01:34N 37°48' W 122°18'1 1.2
2015-Jan-28 00:34N 37°48' W 122°19'1 1.1
2015-Jan-27 23:34N 37°48' W 122°21'0 0.4
2015-Jan-27 22:33N 37°49' W 122°20'1 1.1
2015-Jan-27 21:34N 37°49' W 122°19'0 0.4
2015-Jan-27 20:33N 37°49' W 122°19'0 0.0
2015-Jan-27 19:34N 37°49' W 122°19'0 0.0
2015-Jan-27 18:34N 37°49' W 122°19'0 0.0
2015-Jan-27 17:34N 37°49' W 122°19'0 0.0
2015-Jan-27 16:34N 37°49' W 122°19'0 0.0
2015-Jan-27 15:33N 37°49' W 122°19'0 0.0
2015-Jan-27 14:34N 37°49' W 122°19'0 0.0
2015-Jan-27 13:34N 37°49' W 122°19'0 0.0
2015-Jan-27 12:34N 37°49' W 122°19'0 0.0
2015-Jan-27 11:34N 37°49' W 122°19'0 0.0
2015-Jan-27 10:34N 37°49' W 122°19'0 0.0
2015-Jan-27 09:33N 37°49' W 122°19'0 0.0
2015-Jan-27 08:34N 37°49' W 122°19'0 0.0
2015-Jan-27 07:34N 37°49' W 122°19'0 0.0
2015-Jan-27 06:34N 37°49' W 122°19'0 0.0
2015-Jan-27 05:33N 37°49' W 122°19'2 1.5
2015-Jan-27 04:33N 37°49' W 122°20'0 0.2
2015-Jan-27 03:33N 37°48' W 122°21'0 0.0
2015-Jan-27 02:33N 37°48' W 122°21'1 0.8
2015-Jan-27 01:33N 37°49' W 122°20'0 0.4
2015-Jan-27 00:33N 37°49' W 122°19'1 0.5
2015-Jan-26 23:33N 37°49' W 122°19'0 0.0
2015-Jan-26 22:34N 37°49' W 122°19'0 0.0
2015-Jan-26 21:33N 37°49' W 122°19'0 0.1
2015-Jan-26 20:34N 37°49' W 122°19'2 1.8
2015-Jan-26 19:34N 37°48' W 122°18'3 2.9
2015-Jan-26 18:33N 37°48' W 122°22'3 2.6
2015-Jan-26 17:34N 37°49' W 122°19'0 0.0
2015-Jan-26 16:33N 37°49' W 122°19'0 0.0
2015-Jan-26 15:33N 37°49' W 122°19'0 0.0
2015-Jan-26 14:33N 37°49' W 122°19'0 0.2
2015-Jan-26 13:33N 37°49' W 122°19'2 1.8
2015-Jan-26 12:33N 37°48' W 122°21'1 0.8
2015-Jan-26 11:34N 37°49' W 122°20'0 0.0
2015-Jan-26 10:33N 37°49' W 122°20'0 0.0
2015-Jan-26 09:33N 37°49' W 122°20'0 0.0
2015-Jan-26 08:33N 37°49' W 122°20'0 0.0
2015-Jan-26 07:33N 37°49' W 122°20'0 0.0
2015-Jan-26 06:33N 37°49' W 122°20'0 0.0
2015-Jan-26 05:34N 37°49' W 122°20'1 1.4
2015-Jan-26 04:32N 37°48' W 122°19'1 1.1
2015-Jan-26 03:34N 37°48' W 122°20'1 0.6
2015-Jan-26 02:34N 37°48' W 122°21'0 0.0
2015-Jan-26 01:34N 37°48' W 122°21'1 0.7
2015-Jan-26 00:33N 37°49' W 122°20'1 0.5
2015-Jan-25 23:34N 37°49' W 122°19'0 0.2
2015-Jan-25 22:34N 37°49' W 122°19'1 0.7
2015-Jan-25 21:34N 37°49' W 122°19'0 0.0
2015-Jan-25 20:34N 37°49' W 122°19'0 0.0
2015-Jan-25 19:33N 37°49' W 122°19'0 0.0
2015-Jan-25 18:34N 37°49' W 122°19'0 0.0
2015-Jan-25 17:34N 37°49' W 122°19'0 0.0
2015-Jan-25 16:33N 37°49' W 122°19'0 0.0
2015-Jan-25 15:33N 37°49' W 122°19'0 0.0
2015-Jan-25 14:34N 37°49' W 122°19'0 0.0
2015-Jan-25 13:34N 37°49' W 122°19'0 0.0
2015-Jan-25 12:33N 37°49' W 122°19'0 0.0
2015-Jan-25 11:34N 37°49' W 122°19'0 0.0
2015-Jan-25 10:34N 37°49' W 122°19'0 0.0
2015-Jan-25 09:33N 37°49' W 122°19'0 0.0
2015-Jan-25 08:33N 37°49' W 122°19'0 0.0
2015-Jan-25 07:34N 37°49' W 122°19'0 0.0
2015-Jan-25 06:34N 37°49' W 122°19'0 0.0
2015-Jan-25 05:33N 37°49' W 122°19'0 0.0
2015-Jan-25 04:33N 37°49' W 122°19'0 0.0
2015-Jan-25 03:34N 37°49' W 122°19'0 0.0
2015-Jan-25 02:33N 37°49' W 122°19'0 0.0
2015-Jan-25 01:33N 37°49' W 122°19'0 0.0
2015-Jan-25 00:34N 37°49' W 122°19'0 0.0
2015-Jan-24 23:33N 37°49' W 122°19'0 0.0
2015-Jan-24 22:33N 37°49' W 122°19'0 0.0
2015-Jan-24 21:33N 37°49' W 122°19'5 5.5
2015-Jan-24 20:33N 37°53' W 122°24'3 2.9
2015-Jan-24 19:33N 37°55' W 122°22'2 2.3
2015-Jan-24 18:33N 37°55' W 122°25'3 3.0
2015-Jan-24 17:33N 37°52' W 122°24'5 5.0
2015-Jan-24 16:33N 37°49' W 122°19'0 0.0
2015-Jan-24 15:34N 37°49' W 122°19'1 0.9
2015-Jan-24 14:33N 37°49' W 122°20'2 2.0
2015-Jan-24 13:33N 37°48' W 122°22'1 1.2
2015-Jan-24 12:33N 37°48' W 122°21'1 1.0
2015-Jan-24 11:34N 37°48' W 122°20'2 2.0
2015-Jan-24 10:34N 37°48' W 122°22'3 3.0
2015-Jan-24 09:34N 37°49' W 122°19'0 0.0
2015-Jan-24 08:34N 37°49' W 122°19'0 0.0
2015-Jan-24 07:33N 37°49' W 122°19'0 0.0
2015-Jan-24 06:33N 37°49' W 122°19'0 0.0
2015-Jan-24 05:33N 37°49' W 122°19'0 0.0
2015-Jan-24 04:34N 37°49' W 122°19'1 0.8
2015-Jan-24 03:33N 37°49' W 122°20'1 1.3
2015-Jan-24 02:34N 37°48' W 122°19'2 1.9
2015-Jan-24 01:33N 37°48' W 122°21'2 1.7
2015-Jan-24 00:33N 37°49' W 122°19'0 0.5
2015-Jan-23 23:34N 37°49' W 122°19'0 0.0
2015-Jan-23 22:33N 37°49' W 122°19'0 0.0
2015-Jan-23 21:34N 37°49' W 122°19'0 0.0
2015-Jan-23 20:34N 37°49' W 122°19'0 0.0
2015-Jan-23 19:33N 37°49' W 122°19'0 0.0
2015-Jan-23 18:34N 37°49' W 122°19'0 0.0
2015-Jan-23 17:33N 37°49' W 122°19'1 1.3
2015-Jan-23 16:33N 37°49' W 122°20'1 0.6
2015-Jan-23 15:34N 37°49' W 122°19'0 0.1
2015-Jan-23 14:33N 37°49' W 122°19'1 0.7
2015-Jan-23 13:33N 37°49' W 122°19'0 0.0
2015-Jan-23 12:33N 37°49' W 122°19'0 0.0
2015-Jan-23 11:34N 37°49' W 122°19'0 0.0
2015-Jan-23 10:34N 37°49' W 122°19'0 0.0
2015-Jan-23 09:33N 37°49' W 122°19'0 0.0
2015-Jan-23 08:34N 37°49' W 122°19'0 0.0
2015-Jan-23 07:33N 37°49' W 122°19'0 0.0
2015-Jan-23 06:33N 37°49' W 122°19'0 0.0
2015-Jan-23 05:33N 37°49' W 122°19'0 0.0
2015-Jan-23 04:33N 37°49' W 122°19'0 0.0
2015-Jan-23 03:33N 37°49' W 122°19'0 0.0
2015-Jan-23 02:33N 37°49' W 122°19'0 0.0
2015-Jan-23 01:33N 37°49' W 122°19'8 8.4
2015-Jan-23 00:33N 37°56' W 122°26'  
Track history (hours):
 
Tides and Currents Weather Stations Pressure Air Temp Water Temp Dewpoint Dewpoint Depression Visibility Wind Speed Wind Dir Waves Ship Positions

Patricia Ann

Owner: AmNav Maritime Services, Oakland, CA. More information available from US FCC via Universal Licensing System and Coast Guard Vessel Documentation Center.

Last reported at 2015-Jan-30 08:33 UTC. Time now 2015-Jan-30 09:28 UTC.
Position N 37°49' W 122°19'.

Length 24 m; draft 4.9 m.

Type: Tug. MMSI: 367330510.

Date/timePositionNaut miles runAvg speedWind from/ knotsBaromVisibWave heightAir tempDewpointWater temp
2015-Jan-30 08:33N 37°49' W 122°19'0 0.0
2015-Jan-30 07:33N 37°49' W 122°19'0 0.0
2015-Jan-30 06:33N 37°49' W 122°19'0 0.0
2015-Jan-30 05:33N 37°49' W 122°19'0 0.0
2015-Jan-30 04:33N 37°49' W 122°19'0 0.0
2015-Jan-30 03:33N 37°49' W 122°19'1 1.4
2015-Jan-30 02:34N 37°49' W 122°20'0 0.2
2015-Jan-30 01:33N 37°49' W 122°20'1 1.3
2015-Jan-30 00:33N 37°49' W 122°19'0 0.0
2015-Jan-29 23:33N 37°49' W 122°19'0 0.0
2015-Jan-29 22:33N 37°49' W 122°19'0 0.0
2015-Jan-29 21:33N 37°49' W 122°19'0 0.0
2015-Jan-29 20:33N 37°49' W 122°19'0 0.0
2015-Jan-29 19:33N 37°49' W 122°19'0 0.0
2015-Jan-29 18:33N 37°49' W 122°19'0 0.0
2015-Jan-29 17:33N 37°49' W 122°19'0 0.0
2015-Jan-29 16:33N 37°49' W 122°19'0 0.0
2015-Jan-29 15:33N 37°49' W 122°19'0 0.0
2015-Jan-29 14:33N 37°49' W 122°19'0 0.0
2015-Jan-29 13:33N 37°49' W 122°19'0 0.4
2015-Jan-29 12:33N 37°49' W 122°19'1 1.1
2015-Jan-29 11:33N 37°49' W 122°20'1 1.5
2015-Jan-29 10:33N 37°49' W 122°19'0 0.0
2015-Jan-29 09:33N 37°49' W 122°19'0 0.0
2015-Jan-29 08:33N 37°49' W 122°19'0 0.0
2015-Jan-29 07:33N 37°49' W 122°19'0 0.0
2015-Jan-29 06:33N 37°49' W 122°19'0 0.0
2015-Jan-29 05:34N 37°49' W 122°19'0 0.0
2015-Jan-29 04:34N 37°49' W 122°19'0 0.0
2015-Jan-29 03:33N 37°49' W 122°19'0 0.0
2015-Jan-29 02:33N 37°49' W 122°19'0 0.0
2015-Jan-29 01:33N 37°49' W 122°19'0 0.0
2015-Jan-29 00:34N 37°49' W 122°19'0 0.0
2015-Jan-28 23:33N 37°49' W 122°19'0 0.0
2015-Jan-28 22:34N 37°49' W 122°19'0 0.0
2015-Jan-28 21:33N 37°49' W 122°19'0 0.0
2015-Jan-28 20:33N 37°49' W 122°19'2 1.9
2015-Jan-28 19:33N 37°48' W 122°18'0 0.3
2015-Jan-28 18:33N 37°48' W 122°18'3 3.2
2015-Jan-28 17:34N 37°48' W 122°22'1 1.2
2015-Jan-28 16:33N 37°48' W 122°21'0 0.0
2015-Jan-28 15:33N 37°48' W 122°21'3 2.8
2015-Jan-28 14:33N 37°48' W 122°24'1 1.0
2015-Jan-28 13:33N 37°49' W 122°25'5 4.9
2015-Jan-28 12:33N 37°49' W 122°19'0 0.0
2015-Jan-28 11:33N 37°49' W 122°19'0 0.0
2015-Jan-28 10:34N 37°49' W 122°19'0 0.0
2015-Jan-28 09:33N 37°49' W 122°19'0 0.0
2015-Jan-28 08:34N 37°49' W 122°19'0 0.0
2015-Jan-28 07:34N 37°49' W 122°19'0 0.0
2015-Jan-28 06:33N 37°49' W 122°19'2 1.9
2015-Jan-28 05:34N 37°48' W 122°18'1 0.7
2015-Jan-28 04:34N 37°48' W 122°17'0 0.0
2015-Jan-28 03:33N 37°48' W 122°17'0 0.5
2015-Jan-28 02:33N 37°48' W 122°18'0 0.0
2015-Jan-28 01:34N 37°48' W 122°18'1 1.2
2015-Jan-28 00:34N 37°48' W 122°19'1 1.1
2015-Jan-27 23:34N 37°48' W 122°21'0 0.4
2015-Jan-27 22:33N 37°49' W 122°20'1 1.1
2015-Jan-27 21:34N 37°49' W 122°19'0 0.4
2015-Jan-27 20:33N 37°49' W 122°19'0 0.0
2015-Jan-27 19:34N 37°49' W 122°19'0 0.0
2015-Jan-27 18:34N 37°49' W 122°19'0 0.0
2015-Jan-27 17:34N 37°49' W 122°19'0 0.0
2015-Jan-27 16:34N 37°49' W 122°19'0 0.0
2015-Jan-27 15:33N 37°49' W 122°19'0 0.0
2015-Jan-27 14:34N 37°49' W 122°19'0 0.0
2015-Jan-27 13:34N 37°49' W 122°19'0 0.0
2015-Jan-27 12:34N 37°49' W 122°19'0 0.0
2015-Jan-27 11:34N 37°49' W 122°19'0 0.0
2015-Jan-27 10:34N 37°49' W 122°19'0 0.0
2015-Jan-27 09:33N 37°49' W 122°19'0 0.0
2015-Jan-27 08:34N 37°49' W 122°19'0 0.0
2015-Jan-27 07:34N 37°49' W 122°19'0 0.0
2015-Jan-27 06:34N 37°49' W 122°19'0 0.0
2015-Jan-27 05:33N 37°49' W 122°19'2 1.5
2015-Jan-27 04:33N 37°49' W 122°20'0 0.2
2015-Jan-27 03:33N 37°48' W 122°21'0 0.0
2015-Jan-27 02:33N 37°48' W 122°21'1 0.8
2015-Jan-27 01:33N 37°49' W 122°20'0 0.4
2015-Jan-27 00:33N 37°49' W 122°19'1 0.5
2015-Jan-26 23:33N 37°49' W 122°19'0 0.0
2015-Jan-26 22:34N 37°49' W 122°19'0 0.0
2015-Jan-26 21:33N 37°49' W 122°19'0 0.1
2015-Jan-26 20:34N 37°49' W 122°19'2 1.8
2015-Jan-26 19:34N 37°48' W 122°18'3 2.9
2015-Jan-26 18:33N 37°48' W 122°22'3 2.6
2015-Jan-26 17:34N 37°49' W 122°19'0 0.0
2015-Jan-26 16:33N 37°49' W 122°19'0 0.0
2015-Jan-26 15:33N 37°49' W 122°19'0 0.0
2015-Jan-26 14:33N 37°49' W 122°19'0 0.2
2015-Jan-26 13:33N 37°49' W 122°19'2 1.8
2015-Jan-26 12:33N 37°48' W 122°21'1 0.8
2015-Jan-26 11:34N 37°49' W 122°20'0 0.0
2015-Jan-26 10:33N 37°49' W 122°20'0 0.0
2015-Jan-26 09:33N 37°49' W 122°20'0 0.0
2015-Jan-26 08:33N 37°49' W 122°20'0 0.0
2015-Jan-26 07:33N 37°49' W 122°20'0 0.0
2015-Jan-26 06:33N 37°49' W 122°20'0 0.0
2015-Jan-26 05:34N 37°49' W 122°20'1 1.4
2015-Jan-26 04:32N 37°48' W 122°19'1 1.1
2015-Jan-26 03:34N 37°48' W 122°20'1 0.6
2015-Jan-26 02:34N 37°48' W 122°21'0 0.0
2015-Jan-26 01:34N 37°48' W 122°21'1 0.7
2015-Jan-26 00:33N 37°49' W 122°20'1 0.5
2015-Jan-25 23:34N 37°49' W 122°19'0 0.2
2015-Jan-25 22:34N 37°49' W 122°19'1 0.7
2015-Jan-25 21:34N 37°49' W 122°19'0 0.0
2015-Jan-25 20:34N 37°49' W 122°19'0 0.0
2015-Jan-25 19:33N 37°49' W 122°19'0 0.0
2015-Jan-25 18:34N 37°49' W 122°19'0 0.0
2015-Jan-25 17:34N 37°49' W 122°19'0 0.0
2015-Jan-25 16:33N 37°49' W 122°19'0 0.0
2015-Jan-25 15:33N 37°49' W 122°19'0 0.0
2015-Jan-25 14:34N 37°49' W 122°19'0 0.0
2015-Jan-25 13:34N 37°49' W 122°19'0 0.0
2015-Jan-25 12:33N 37°49' W 122°19'0 0.0
2015-Jan-25 11:34N 37°49' W 122°19'0 0.0
2015-Jan-25 10:34N 37°49' W 122°19'0 0.0
2015-Jan-25 09:33N 37°49' W 122°19'0 0.0
2015-Jan-25 08:33N 37°49' W 122°19'0 0.0
2015-Jan-25 07:34N 37°49' W 122°19'0 0.0
2015-Jan-25 06:34N 37°49' W 122°19'0 0.0
2015-Jan-25 05:33N 37°49' W 122°19'0 0.0
2015-Jan-25 04:33N 37°49' W 122°19'0 0.0
2015-Jan-25 03:34N 37°49' W 122°19'0 0.0
2015-Jan-25 02:33N 37°49' W 122°19'0 0.0
2015-Jan-25 01:33N 37°49' W 122°19'0 0.0
2015-Jan-25 00:34N 37°49' W 122°19'0 0.0
2015-Jan-24 23:33N 37°49' W 122°19'0 0.0
2015-Jan-24 22:33N 37°49' W 122°19'0 0.0
2015-Jan-24 21:33N 37°49' W 122°19'5 5.5
2015-Jan-24 20:33N 37°53' W 122°24'3 2.9
2015-Jan-24 19:33N 37°55' W 122°22'2 2.3
2015-Jan-24 18:33N 37°55' W 122°25'3 3.0
2015-Jan-24 17:33N 37°52' W 122°24'5 5.0
2015-Jan-24 16:33N 37°49' W 122°19'0 0.0
2015-Jan-24 15:34N 37°49' W 122°19'1 0.9
2015-Jan-24 14:33N 37°49' W 122°20'2 2.0
2015-Jan-24 13:33N 37°48' W 122°22'1 1.2
2015-Jan-24 12:33N 37°48' W 122°21'1 1.0
2015-Jan-24 11:34N 37°48' W 122°20'2 2.0
2015-Jan-24 10:34N 37°48' W 122°22'3 3.0
2015-Jan-24 09:34N 37°49' W 122°19'0 0.0
2015-Jan-24 08:34N 37°49' W 122°19'0 0.0
2015-Jan-24 07:33N 37°49' W 122°19'0 0.0
2015-Jan-24 06:33N 37°49' W 122°19'0 0.0
2015-Jan-24 05:33N 37°49' W 122°19'0 0.0
2015-Jan-24 04:34N 37°49' W 122°19'1 0.8
2015-Jan-24 03:33N 37°49' W 122°20'1 1.3
2015-Jan-24 02:34N 37°48' W 122°19'2 1.9
2015-Jan-24 01:33N 37°48' W 122°21'2 1.7
2015-Jan-24 00:33N 37°49' W 122°19'0 0.5
2015-Jan-23 23:34N 37°49' W 122°19'0 0.0
2015-Jan-23 22:33N 37°49' W 122°19'0 0.0
2015-Jan-23 21:34N 37°49' W 122°19'0 0.0
2015-Jan-23 20:34N 37°49' W 122°19'0 0.0
2015-Jan-23 19:33N 37°49' W 122°19'0 0.0
2015-Jan-23 18:34N 37°49' W 122°19'0 0.0
2015-Jan-23 17:33N 37°49' W 122°19'1 1.3
2015-Jan-23 16:33N 37°49' W 122°20'1 0.6
2015-Jan-23 15:34N 37°49' W 122°19'0 0.1
2015-Jan-23 14:33N 37°49' W 122°19'1 0.7
2015-Jan-23 13:33N 37°49' W 122°19'0 0.0
2015-Jan-23 12:33N 37°49' W 122°19'0 0.0
2015-Jan-23 11:34N 37°49' W 122°19'0 0.0
2015-Jan-23 10:34N 37°49' W 122°19'0 0.0
2015-Jan-23 09:33N 37°49' W 122°19'0 0.0
2015-Jan-23 08:34N 37°49' W 122°19'0 0.0
2015-Jan-23 07:33N 37°49' W 122°19'0 0.0
2015-Jan-23 06:33N 37°49' W 122°19'0 0.0
2015-Jan-23 05:33N 37°49' W 122°19'0 0.0
2015-Jan-23 04:33N 37°49' W 122°19'0 0.0
2015-Jan-23 03:33N 37°49' W 122°19'0 0.0
2015-Jan-23 02:33N 37°49' W 122°19'0 0.0
2015-Jan-23 01:33N 37°49' W 122°19'8 8.4
2015-Jan-23 00:33N 37°56' W 122°26'  

Dump ship's entire track history